Time;durP1;ratioP1;P1;durP2;ratioP2;P2;SDS_P1;SDS_P2;PMS_P1;PMS_P2;Temp;Humidity;BMP_temperature;BMP_pressure;BME280_temperature;BME280_humidity;BME280_pressure;Samples;Min_cycle;Max_cycle;Signal;HPM_P1;HPM_P2
2023/08/20 00:02:23;;;;;;;5.60;5.10;;;21.40;99.90;;;;;;6073229;23;20465;-77
2023/08/20 00:04:51;;;;;;;5.90;5.23;;;21.40;99.90;;;;;;6097022;23;20357;-77
2023/08/20 00:07:19;;;;;;;4.70;4.20;;;21.40;99.90;;;;;;6073802;23;20405;-76
2023/08/20 00:09:45;;;;;;;5.43;4.93;;;21.40;99.90;;;;;;6073530;23;20436;-78
2023/08/20 00:12:12;;;;;;;5.47;4.77;;;21.40;99.90;;;;;;6072020;23;21017;-79
2023/08/20 00:15:19;;;;;;;5.43;4.93;;;21.40;99.90;;;;;;6071950;23;20412;-76
2023/08/20 00:17:47;;;;;;;5.30;4.27;;;21.50;99.90;;;;;;5984360;23;20405;-76
2023/08/20 00:20:16;;;;;;;4.87;4.47;;;21.50;99.90;;;;;;6005545;23;20396;-76
2023/08/20 00:22:45;;;;;;;4.70;4.30;;;21.60;99.90;;;;;;5949437;24;20401;-76
2023/08/20 00:25:13;;;;;;;5.70;4.43;;;21.60;99.90;;;;;;5952905;24;20369;-75
2023/08/20 00:27:43;;;;;;;7.90;7.10;;;21.70;99.90;;;;;;6003594;24;20408;-76
2023/08/20 00:30:10;;;;;;;12.27;9.23;;;21.80;99.90;;;;;;6001386;23;20434;-76
2023/08/20 00:32:37;;;;;;;11.00;9.40;;;21.80;99.90;;;;;;5981239;24;20436;-76
2023/08/20 00:35:03;;;;;;;10.03;8.60;;;21.90;99.90;;;;;;6002987;24;20392;-77
2023/08/20 00:37:31;;;;;;;10.23;8.67;;;21.90;99.90;;;;;;6003235;24;20505;-74
2023/08/20 00:40:00;;;;;;;8.40;7.60;;;21.80;99.90;;;;;;6002847;23;20404;-76
2023/08/20 00:42:30;;;;;;;7.67;6.97;;;21.80;99.90;;;;;;6001920;24;20408;-77
2023/08/20 00:44:56;;;;;;;10.60;9.50;;;21.70;99.90;;;;;;6004131;23;20422;-78
2023/08/20 00:47:24;;;;;;;9.20;8.30;;;21.70;99.90;;;;;;5990989;23;20404;-76
2023/08/20 00:49:50;;;;;;;8.60;7.80;;;21.60;99.90;;;;;;6092858;23;20413;-76
2023/08/20 00:52:20;;;;;;;7.70;7.00;;;21.50;99.90;;;;;;6068986;23;20487;-75
2023/08/20 00:54:48;;;;;;;7.40;6.70;;;21.40;99.90;;;;;;6122618;23;20376;-76
2023/08/20 00:57:17;;;;;;;6.93;6.33;;;21.40;99.90;;;;;;6062921;23;20378;-75
2023/08/20 00:59:45;;;;;;;8.13;7.40;;;21.30;99.90;;;;;;6039250;23;20436;-75
2023/08/20 01:02:11;;;;;;;6.73;6.13;;;21.20;99.90;;;;;;6037860;23;20453;-75
2023/08/20 01:04:40;;;;;;;7.70;6.23;;;21.20;99.90;;;;;;6038380;23;20370;-77
2023/08/20 01:07:22;;;;;;;6.73;5.63;;;21.20;99.90;;;;;;6032843;23;20158;-74
2023/08/20 01:09:52;;;;;;;5.80;5.30;;;21.10;99.90;;;;;;6011783;23;20474;-74
2023/08/20 01:12:19;;;;;;;7.97;7.23;;;21.00;99.90;;;;;;6034069;23;20451;-75
2023/08/20 01:14:46;;;;;;;7.70;7.00;;;21.00;99.90;;;;;;6009771;23;20371;-76
2023/08/20 01:17:32;;;;;;;7.00;6.33;;;21.00;99.90;;;;;;6058956;23;20480;-77
2023/08/20 01:19:58;;;;;;;9.70;8.70;;;20.90;99.90;;;;;;6034790;23;20481;-74
2023/08/20 01:22:44;;;;;;;9.47;8.57;;;20.90;99.90;;;;;;6033904;23;20182;-76
2023/08/20 01:25:34;;;;;;;8.30;7.50;;;20.90;99.90;;;;;;6010701;23;20142;-75
2023/08/20 01:28:47;;;;;;;6.90;6.20;;;20.80;99.90;;;;;;6045658;23;20382;-76
2023/08/20 01:31:15;;;;;;;7.30;6.60;;;20.90;99.90;;;;;;5916465;24;20435;-74
2023/08/20 01:33:44;;;;;;;6.57;6.00;;;20.80;99.90;;;;;;5897892;24;20386;-73
2023/08/20 01:36:10;;;;;;;5.97;5.47;;;20.80;99.90;;;;;;5896463;24;20383;-76
2023/08/20 01:38:37;;;;;;;6.83;6.13;;;20.80;99.90;;;;;;5931930;24;20189;-75
2023/08/20 01:41:05;;;;;;;9.37;8.40;;;20.70;99.90;;;;;;5945533;24;20417;-76
2023/08/20 01:43:33;;;;;;;10.70;9.60;;;20.80;99.90;;;;;;5944476;24;20475;-78
2023/08/20 01:46:00;;;;;;;10.10;9.00;;;20.80;99.90;;;;;;5945977;24;20375;-76
2023/08/20 01:48:27;;;;;;;10.57;9.60;;;20.80;99.90;;;;;;5946159;24;20382;-75
2023/08/20 01:50:53;;;;;;;9.27;8.47;;;20.90;99.90;;;;;;5967897;24;20413;-74
2023/08/20 01:53:20;;;;;;;9.27;8.37;;;20.80;99.90;;;;;;5975081;24;20151;-76
2023/08/20 01:55:48;;;;;;;8.00;7.20;;;20.80;99.90;;;;;;5975551;24;20380;-77
2023/08/20 01:58:15;;;;;;;7.63;6.93;;;20.70;99.90;;;;;;5972196;23;20376;-77
2023/08/20 02:00:41;;;;;;;8.03;7.30;;;20.70;99.90;;;;;;6002016;24;20427;-75
2023/08/20 02:03:09;;;;;;;10.10;9.20;;;20.70;99.90;;;;;;6113650;23;20419;-74
2023/08/20 02:05:35;;;;;;;8.00;7.30;;;20.80;99.90;;;;;;6043438;23;20412;-76
2023/08/20 02:08:02;;;;;;;9.40;8.60;;;20.80;99.90;;;;;;6090681;23;20380;-74
2023/08/20 02:10:27;;;;;;;8.90;8.00;;;20.70;99.90;;;;;;6065715;23;20201;-74
2023/08/20 02:13:09;;;;;;;9.30;8.40;;;20.80;99.90;;;;;;6041899;23;20390;-75
2023/08/20 02:15:37;;;;;;;8.43;7.73;;;20.80;99.90;;;;;;6047583;23;20157;-75
2023/08/20 02:18:07;;;;;;;7.00;6.30;;;20.70;99.90;;;;;;6096724;23;20424;-78
2023/08/20 02:20:35;;;;;;;8.00;7.20;;;20.70;99.90;;;;;;6070712;23;20400;-75
2023/08/20 02:23:03;;;;;;;7.77;6.97;;;20.70;99.90;;;;;;6094075;23;20463;-74
2023/08/20 02:25:32;;;;;;;10.97;9.30;;;20.70;99.90;;;;;;6067693;23;20441;-74
2023/08/20 02:27:58;;;;;;;9.60;8.70;;;20.70;99.90;;;;;;6089114;23;20380;-75
2023/08/20 02:30:23;;;;;;;8.67;7.87;;;20.70;99.90;;;;;;6063548;23;20436;-74
2023/08/20 02:32:49;;;;;;;8.50;7.70;;;20.70;99.90;;;;;;6061611;23;20157;-74
2023/08/20 02:35:16;;;;;;;8.40;7.60;;;20.70;99.90;;;;;;6083955;23;20168;-74
2023/08/20 02:37:42;;;;;;;7.50;6.90;;;20.60;99.90;;;;;;6100502;23;20175;-74
2023/08/20 02:40:11;;;;;;;9.10;7.93;;;20.60;99.90;;;;;;6120041;23;20406;-74
2023/08/20 02:42:38;;;;;;;10.30;9.30;;;20.60;99.90;;;;;;6118826;23;20427;-76
2023/08/20 02:45:04;;;;;;;8.67;7.83;;;20.50;99.90;;;;;;6093747;23;20383;-75
2023/08/20 02:47:31;;;;;;;9.93;9.03;;;20.50;99.90;;;;;;6095257;23;20144;-76
2023/08/20 02:49:59;;;;;;;10.70;9.70;;;20.50;99.90;;;;;;6120927;23;20403;-75
2023/08/20 02:52:25;;;;;;;13.13;11.80;;;20.50;99.90;;;;;;6123243;23;20412;-75
2023/08/20 02:54:50;;;;;;;13.43;11.60;;;20.40;99.90;;;;;;6096572;23;20375;-75
2023/08/20 02:57:16;;;;;;;11.40;10.40;;;20.50;99.90;;;;;;6120449;23;20148;-75
2023/08/20 02:59:44;;;;;;;14.23;12.73;;;20.50;99.90;;;;;;6122743;23;20164;-74
2023/08/20 03:02:09;;;;;;;10.70;9.60;;;20.50;99.90;;;;;;6092832;23;20748;-73
2023/08/20 03:04:36;;;;;;;11.20;10.10;;;20.50;99.90;;;;;;6139407;23;20396;-74
2023/08/20 03:07:03;;;;;;;9.70;8.37;;;20.50;99.90;;;;;;6122104;23;20178;-74
2023/08/20 03:09:29;;;;;;;8.60;7.70;;;20.50;99.90;;;;;;6120518;23;20375;-75
2023/08/20 03:11:55;;;;;;;7.77;6.97;;;20.40;99.90;;;;;;6120445;23;20386;-75
2023/08/20 03:14:20;;;;;;;10.60;9.60;;;20.40;99.90;;;;;;6095004;23;20156;-75
2023/08/20 03:16:46;;;;;;;9.00;8.03;;;20.40;99.90;;;;;;6146429;23;20383;-76
2023/08/20 03:19:15;;;;;;;10.27;8.93;;;20.40;99.90;;;;;;6122850;23;20147;-76
2023/08/20 03:21:42;;;;;;;15.63;12.33;;;20.40;99.90;;;;;;6144827;23;20148;-75
2023/08/20 03:24:08;;;;;;;13.17;11.80;;;20.40;99.90;;;;;;6094555;23;20454;-73
2023/08/20 03:26:34;;;;;;;14.47;12.93;;;20.40;99.90;;;;;;6144320;23;20140;-74
2023/08/20 03:29:03;;;;;;;12.20;11.10;;;20.40;99.90;;;;;;6120919;23;20368;-75
2023/08/20 03:31:28;;;;;;;10.97;9.87;;;20.40;99.90;;;;;;6121461;23;20438;-75
2023/08/20 03:33:54;;;;;;;9.77;8.77;;;20.40;99.90;;;;;;6143519;23;20624;-75
2023/08/20 03:36:20;;;;;;;13.40;12.00;;;20.30;99.90;;;;;;6144809;23;20524;-75
2023/08/20 03:38:46;;;;;;;15.13;13.63;;;20.30;99.90;;;;;;6119348;23;20382;-75
2023/08/20 03:41:14;;;;;;;16.17;12.57;;;20.30;99.90;;;;;;6119020;23;20191;-74
2023/08/20 03:43:40;;;;;;;15.10;13.07;;;20.30;99.90;;;;;;6143084;23;20191;-77
2023/08/20 03:46:06;;;;;;;11.53;10.33;;;20.30;99.90;;;;;;6144494;23;20364;-74
2023/08/20 03:48:32;;;;;;;10.53;9.40;;;20.30;99.90;;;;;;6143077;23;20148;-74
2023/08/20 03:50:57;;;;;;;11.30;10.17;;;20.30;99.90;;;;;;6144110;23;20583;-75
2023/08/20 03:53:23;;;;;;;10.17;9.20;;;20.20;99.90;;;;;;6093761;23;20178;-75
2023/08/20 03:55:49;;;;;;;13.27;11.97;;;20.20;99.90;;;;;;6115067;23;20144;-74
2023/08/20 03:58:17;;;;;;;12.00;10.70;;;20.20;99.90;;;;;;6114766;23;20411;-74
2023/08/20 04:00:43;;;;;;;21.70;17.87;;;20.20;99.90;;;;;;6139243;23;20450;-74
2023/08/20 04:03:09;;;;;;;20.80;17.20;;;20.20;99.90;;;;;;6140906;23;20423;-74
2023/08/20 04:05:38;;;;;;;17.63;15.77;;;20.20;99.90;;;;;;6139480;23;20386;-74
2023/08/20 04:08:06;;;;;;;13.40;11.80;;;20.20;99.90;;;;;;6114970;23;20223;-74
2023/08/20 04:10:31;;;;;;;13.90;12.50;;;20.10;99.90;;;;;;6138493;23;20406;-74
2023/08/20 04:12:58;;;;;;;15.50;13.80;;;20.10;99.90;;;;;;6143634;23;20626;-74
2023/08/20 04:15:24;;;;;;;14.53;12.30;;;20.00;99.90;;;;;;6128515;23;20211;-75
2023/08/20 04:17:49;;;;;;;13.70;12.50;;;20.10;99.90;;;;;;6103653;23;20391;-75
2023/08/20 04:20:15;;;;;;;12.57;11.33;;;20.00;99.90;;;;;;6128458;23;20163;-74
2023/08/20 04:22:41;;;;;;;12.73;11.00;;;20.10;99.90;;;;;;6129627;23;20171;-75
2023/08/20 04:25:07;;;;;;;20.93;18.60;;;20.10;99.90;;;;;;6129698;23;20144;-74
2023/08/20 04:27:33;;;;;;;20.00;17.53;;;20.10;99.90;;;;;;6126676;23;20687;-74
2023/08/20 04:29:59;;;;;;;17.70;15.90;;;20.10;99.90;;;;;;6127135;23;20214;-72
2023/08/20 04:32:25;;;;;;;25.03;18.17;;;20.10;99.90;;;;;;6103680;23;20206;-75
2023/08/20 04:34:52;;;;;;;19.73;16.80;;;20.10;99.90;;;;;;6129491;23;20173;-75
2023/08/20 04:37:19;;;;;;;18.33;14.73;;;20.00;99.90;;;;;;6127348;23;20163;-74
2023/08/20 04:39:46;;;;;;;15.70;14.20;;;20.00;99.90;;;;;;6127575;23;20398;-75
2023/08/20 04:42:11;;;;;;;17.40;14.47;;;20.00;99.90;;;;;;6127506;23;20376;-75
2023/08/20 04:44:37;;;;;;;14.73;13.23;;;19.90;99.90;;;;;;6129519;23;20196;-77
2023/08/20 04:47:02;;;;;;;15.27;13.03;;;19.90;99.90;;;;;;6128674;23;20159;-74
2023/08/20 04:49:30;;;;;;;15.53;13.07;;;20.00;99.90;;;;;;6128821;23;20156;-74
2023/08/20 04:51:58;;;;;;;16.10;13.73;;;20.00;99.90;;;;;;6127558;23;20372;-74
2023/08/20 04:54:24;;;;;;;15.13;12.60;;;20.00;99.90;;;;;;6128009;23;20387;-74
2023/08/20 04:56:50;;;;;;;19.00;16.37;;;20.00;99.90;;;;;;6127429;23;20478;-74
2023/08/20 04:59:16;;;;;;;17.67;15.90;;;20.00;99.90;;;;;;6127495;23;20148;-73
2023/08/20 05:01:50;;;;;;;17.63;15.40;;;20.00;99.90;;;;;;6146818;23;20144;-74
2023/08/20 05:04:19;;;;;;;16.23;14.50;;;20.00;99.90;;;;;;6139312;23;20427;-74
2023/08/20 05:06:45;;;;;;;12.73;11.47;;;20.00;99.90;;;;;;6115045;23;20360;-74
2023/08/20 05:09:12;;;;;;;15.20;12.37;;;20.00;99.90;;;;;;6138300;23;20428;-74
2023/08/20 05:11:37;;;;;;;19.57;16.10;;;20.00;99.90;;;;;;6137914;23;20156;-74
2023/08/20 05:14:03;;;;;;;14.33;12.40;;;20.10;99.90;;;;;;6138710;23;20415;-74
2023/08/20 05:16:29;;;;;;;18.93;15.90;;;20.10;99.90;;;;;;6139024;23;20156;-74
2023/08/20 05:19:00;;;;;;;16.13;14.40;;;20.10;99.90;;;;;;6140221;23;20387;-74
2023/08/20 05:21:25;;;;;;;16.33;14.63;;;20.10;99.90;;;;;;6115621;23;20427;-74
2023/08/20 05:23:52;;;;;;;15.70;13.30;;;20.20;99.90;;;;;;6142612;23;20498;-75
2023/08/20 05:26:18;;;;;;;15.40;12.43;;;20.30;99.90;;;;;;6141005;23;20356;-73
2023/08/20 05:28:43;;;;;;;14.90;13.40;;;20.40;99.90;;;;;;6139842;23;20774;-74
2023/08/20 05:31:10;;;;;;;14.83;11.47;;;20.60;99.90;;;;;;6141348;23;20207;-74
2023/08/20 05:33:36;;;;;;;14.07;12.67;;;20.70;99.90;;;;;;6118207;23;20152;-75
2023/08/20 05:36:03;;;;;;;13.67;12.37;;;20.90;99.90;;;;;;6117824;23;20430;-74
2023/08/20 05:38:29;;;;;;;10.47;9.57;;;21.00;99.90;;;;;;6117988;23;20439;-74
2023/08/20 05:40:55;;;;;;;15.80;14.10;;;20.90;99.90;;;;;;6139866;23;20719;-73
2023/08/20 05:43:21;;;;;;;12.20;10.90;;;21.00;99.90;;;;;;6143351;23;20216;-75
2023/08/20 05:45:47;;;;;;;12.20;9.97;;;21.10;99.90;;;;;;6121770;23;20367;-75
2023/08/20 05:48:18;;;;;;;10.53;9.47;;;21.20;99.90;;;;;;6120664;23;20606;-74
2023/08/20 05:50:45;;;;;;;11.27;10.17;;;21.30;99.90;;;;;;6114874;23;20407;-74
2023/08/20 05:53:12;;;;;;;16.17;14.47;;;21.60;99.90;;;;;;6142028;23;20226;-74
2023/08/20 05:55:39;;;;;;;14.77;13.27;;;21.70;99.90;;;;;;6141235;23;20435;-75
2023/08/20 05:58:04;;;;;;;12.97;11.50;;;21.80;99.90;;;;;;6117585;23;20396;-74
2023/08/20 06:00:32;;;;;;;16.70;14.97;;;21.90;99.90;;;;;;6117563;23;20479;-74
2023/08/20 06:02:58;;;;;;;14.53;13.03;;;22.10;99.90;;;;;;6116830;23;20798;-74
2023/08/20 06:05:23;;;;;;;12.77;11.47;;;22.20;99.90;;;;;;6118441;23;20180;-74
2023/08/20 06:07:49;;;;;;;12.97;11.77;;;22.30;99.90;;;;;;6144137;23;20132;-73
2023/08/20 06:10:15;;;;;;;14.67;13.20;;;22.50;99.90;;;;;;6120758;23;20176;-73
2023/08/20 06:12:41;;;;;;;16.77;11.73;;;22.60;99.90;;;;;;6143600;23;20211;-74
2023/08/20 06:15:08;;;;;;;15.47;13.87;;;22.70;99.90;;;;;;6142644;23;20391;-73
2023/08/20 06:17:34;;;;;;;14.07;12.67;;;22.80;99.90;;;;;;6120558;23;20156;-74
2023/08/20 06:19:59;;;;;;;15.73;14.13;;;22.80;99.90;;;;;;6144166;23;20646;-74
2023/08/20 06:22:25;;;;;;;15.73;13.40;;;22.90;99.90;;;;;;6122217;23;20220;-74
2023/08/20 06:24:52;;;;;;;18.63;13.67;;;22.90;99.90;;;;;;6096927;23;20156;-77
2023/08/20 06:27:18;;;;;;;12.73;11.47;;;22.90;99.90;;;;;;6093285;23;20265;-75
2023/08/20 06:29:44;;;;;;;16.70;12.70;;;23.00;99.90;;;;;;6144069;23;20390;-75
2023/08/20 06:32:10;;;;;;;16.43;14.90;;;23.10;99.90;;;;;;6122099;23;20203;-75
2023/08/20 06:34:36;;;;;;;15.77;13.87;;;23.10;99.90;;;;;;6147347;23;20144;-76
2023/08/20 06:37:03;;;;;;;15.33;12.43;;;23.10;99.90;;;;;;6126743;23;20356;-75
2023/08/20 06:39:30;;;;;;;12.40;10.90;;;23.10;99.90;;;;;;6148788;23;20343;-76
2023/08/20 06:42:18;;;;;;;13.13;11.00;;;23.20;99.90;;;;;;6128568;23;20426;-77
2023/08/20 06:44:54;;;;;;;14.93;13.53;;;23.30;99.90;;;;;;6129367;23;20491;-78
2023/08/20 06:47:21;;;;;;;13.20;12.00;;;23.30;99.90;;;;;;6154112;23;20360;-75
2023/08/20 06:49:52;;;;;;;14.50;11.90;;;23.30;99.90;;;;;;6127975;23;20492;-75
2023/08/20 06:52:18;;;;;;;13.20;12.00;;;23.30;99.90;;;;;;6152650;23;20356;-76
2023/08/20 06:54:46;;;;;;;16.13;13.50;;;23.30;99.90;;;;;;6153413;23;20356;-76
2023/08/20 06:57:12;;;;;;;10.20;9.20;;;23.30;99.90;;;;;;6102612;23;20387;-76
2023/08/20 06:59:38;;;;;;;12.50;10.07;;;23.30;99.90;;;;;;6153129;23;20167;-75
2023/08/20 07:02:04;;;;;;;14.03;12.27;;;23.40;99.90;;;;;;6151869;23;20190;-74
2023/08/20 07:04:29;;;;;;;14.00;12.60;;;23.40;99.90;;;;;;6151463;23;20396;-74
2023/08/20 07:06:55;;;;;;;14.10;12.13;;;23.40;99.90;;;;;;6148089;23;20184;-75
2023/08/20 07:09:21;;;;;;;18.40;14.03;;;23.40;99.90;;;;;;6121470;23;20148;-74
2023/08/20 07:11:47;;;;;;;14.97;13.47;;;23.30;99.90;;;;;;6122948;23;20427;-75
2023/08/20 07:14:13;;;;;;;16.37;14.57;;;23.30;99.90;;;;;;6121267;23;20155;-74
2023/08/20 07:16:41;;;;;;;15.97;14.27;;;23.30;99.90;;;;;;6097397;23;20152;-73
2023/08/20 07:19:06;;;;;;;14.63;12.00;;;23.30;99.90;;;;;;6098295;23;20388;-75
2023/08/20 07:21:32;;;;;;;15.90;12.30;;;23.40;99.90;;;;;;6121601;23;20415;-75
2023/08/20 07:23:58;;;;;;;15.57;14.07;;;23.50;99.90;;;;;;6121210;23;20180;-74
2023/08/20 07:26:25;;;;;;;15.33;13.73;;;23.60;99.90;;;;;;6096431;23;20385;-75
2023/08/20 07:28:57;;;;;;;16.93;13.53;;;23.70;99.90;;;;;;6097953;23;20160;-77
2023/08/20 07:31:28;;;;;;;16.73;14.27;;;23.80;99.90;;;;;;6122900;23;20431;-75
2023/08/20 07:33:56;;;;;;;15.10;13.60;;;23.80;99.90;;;;;;6121889;23;20410;-75
2023/08/20 07:36:23;;;;;;;11.60;10.00;;;23.80;99.90;;;;;;6123045;23;20384;-77
2023/08/20 07:38:53;;;;;;;16.10;11.50;;;23.80;99.90;;;;;;6096112;23;20384;-75
2023/08/20 07:41:19;;;;;;;18.90;15.40;;;23.80;99.90;;;;;;6121851;23;20410;-74
2023/08/20 07:43:47;;;;;;;18.03;15.50;;;23.80;99.90;;;;;;6123738;23;20650;-76
2023/08/20 07:46:13;;;;;;;15.40;13.80;;;23.80;99.90;;;;;;6146906;23;20451;-75
2023/08/20 07:48:39;;;;;;;17.53;15.47;;;23.80;99.90;;;;;;6122311;23;20400;-78
2023/08/20 07:51:06;;;;;;;19.50;17.60;;;23.80;99.90;;;;;;6148584;23;20410;-75
2023/08/20 07:53:34;;;;;;;20.43;18.20;;;23.70;99.90;;;;;;6124094;23;20351;-74
2023/08/20 07:56:00;;;;;;;20.17;18.17;;;23.70;99.90;;;;;;6149762;23;20812;-74
2023/08/20 07:58:28;;;;;;;25.27;21.70;;;23.60;99.90;;;;;;6148535;23;20380;-76
2023/08/20 08:00:55;;;;;;;18.60;16.80;;;23.60;99.90;;;;;;6117525;23;20397;-77
2023/08/20 08:03:25;;;;;;;16.20;14.60;;;23.60;99.90;;;;;;6117369;23;20420;-76
2023/08/20 08:05:52;;;;;;;18.73;15.90;;;23.60;99.90;;;;;;6093027;23;20380;-74
2023/08/20 08:08:33;;;;;;;20.60;17.33;;;23.70;99.90;;;;;;6091865;23;20463;-77
2023/08/20 08:11:01;;;;;;;13.87;12.40;;;23.80;99.90;;;;;;6093011;23;20413;-78
2023/08/20 08:13:28;;;;;;;16.47;14.67;;;23.80;99.90;;;;;;6117706;23;20374;-75
2023/08/20 08:18:49;;;;;;;13.10;11.30;;;23.90;99.90;;;;;;6207891;23;20438;-78
2023/08/20 08:21:15;;;;;;;17.00;15.00;;;24.00;99.90;;;;;;6177980;23;20385;-74
2023/08/20 08:23:41;;;;;;;13.93;11.63;;;24.10;99.90;;;;;;6205189;23;20418;-73
2023/08/20 08:26:07;;;;;;;14.13;11.53;;;24.20;99.90;;;;;;6183265;23;20389;-75
2023/08/20 08:28:35;;;;;;;12.87;11.33;;;24.30;99.90;;;;;;6179729;23;20162;-76
2023/08/20 08:31:02;;;;;;;17.63;14.93;;;24.30;99.90;;;;;;6180448;23;20397;-76
2023/08/20 08:33:28;;;;;;;15.03;13.53;;;24.40;99.90;;;;;;6180577;23;20382;-75
2023/08/20 08:35:54;;;;;;;14.40;12.10;;;24.40;99.90;;;;;;6154591;23;20410;-75
2023/08/20 08:38:20;;;;;;;18.17;15.20;;;24.50;99.90;;;;;;6178198;23;20147;-74
2023/08/20 08:40:46;;;;;;;20.17;15.77;;;24.50;99.90;;;;;;6153545;23;20172;-75
2023/08/20 08:43:17;;;;;;;16.40;14.03;;;24.50;99.90;;;;;;6179230;23;20410;-75
2023/08/20 08:45:50;;;;;;;18.90;16.90;;;24.50;99.90;;;;;;6179596;23;20398;-77
2023/08/20 08:48:17;;;;;;;20.10;16.87;;;24.40;99.90;;;;;;6129906;23;20433;-75
2023/08/20 08:50:44;;;;;;;16.33;14.53;;;24.50;99.90;;;;;;6189684;23;20750;-74
2023/08/20 08:53:13;;;;;;;15.80;14.10;;;24.50;99.90;;;;;;6184514;23;20386;-74
2023/08/20 08:55:39;;;;;;;13.00;11.77;;;24.60;99.90;;;;;;6158578;23;20404;-74
2023/08/20 08:58:06;;;;;;;14.27;12.80;;;24.70;99.90;;;;;;6160141;23;20369;-76
2023/08/20 09:00:32;;;;;;;12.77;11.30;;;24.80;99.90;;;;;;6128809;23;20175;-76
2023/08/20 09:02:59;;;;;;;18.97;12.60;;;24.90;99.90;;;;;;6155694;23;20419;-76
2023/08/20 09:05:32;;;;;;;13.77;11.10;;;25.00;99.90;;;;;;6156357;23;20341;-77
2023/08/20 09:07:58;;;;;;;14.77;13.23;;;25.10;99.90;;;;;;6131386;23;20379;-76
2023/08/20 09:10:29;;;;;;;12.40;11.20;;;25.10;99.90;;;;;;6124178;23;20399;-78
2023/08/20 09:12:57;;;;;;;12.47;11.03;;;25.20;99.90;;;;;;6123705;23;20383;-74
2023/08/20 09:15:33;;;;;;;11.13;9.40;;;25.30;99.90;;;;;;6121813;23;20368;-75
2023/08/20 09:18:04;;;;;;;9.70;8.70;;;25.40;99.90;;;;;;6098313;23;20379;-76
2023/08/20 09:20:37;;;;;;;9.70;8.43;;;25.40;99.90;;;;;;6121697;23;20499;-74
2023/08/20 09:23:15;;;;;;;7.07;6.47;;;25.40;99.90;;;;;;6122458;23;20434;-75
2023/08/20 09:25:45;;;;;;;8.10;7.30;;;25.40;99.90;;;;;;6099636;23;20458;-76
2023/08/20 09:28:21;;;;;;;9.30;8.50;;;25.40;99.90;;;;;;6147074;23;20363;-76
2023/08/20 09:31:01;;;;;;;11.60;9.90;;;25.30;99.90;;;;;;6124913;23;20416;-77
2023/08/20 09:33:30;;;;;;;11.90;10.67;;;25.20;99.90;;;;;;6101201;23;20363;-76
2023/08/20 09:35:57;;;;;;;12.77;11.57;;;25.20;99.90;;;;;;6062546;23;20370;-76
2023/08/20 09:38:24;;;;;;;10.53;9.53;;;25.20;99.90;;;;;;6015735;23;20466;-75
2023/08/20 09:40:58;;;;;;;10.40;9.40;;;25.20;99.90;;;;;;6080642;23;20160;-77
2023/08/20 09:43:38;;;;;;;14.97;12.43;;;25.40;99.90;;;;;;6120452;23;20697;-77
2023/08/20 09:46:16;;;;;;;12.37;10.87;;;25.40;99.90;;;;;;6102218;23;20412;-77
2023/08/20 09:48:47;;;;;;;9.50;8.60;;;25.70;99.90;;;;;;6073048;23;20397;-76
2023/08/20 09:51:18;;;;;;;9.80;8.23;;;26.10;99.90;;;;;;6080191;23;20442;-76
2023/08/20 09:54:12;;;;;;;12.67;11.20;;;26.30;99.90;;;;;;6038463;23;20397;-77
2023/08/20 09:57:15;;;;;;;13.47;11.10;;;26.60;99.10;;;;;;6039181;23;20412;-78
2023/08/20 10:02:31;;;;;;;10.83;9.90;;;26.80;96.40;;;;;;6209039;23;20476;-76
2023/08/20 10:05:07;;;;;;;11.87;10.67;;;27.00;95.10;;;;;;6134852;23;20437;-78
2023/08/20 10:07:38;;;;;;;11.87;10.77;;;27.20;94.00;;;;;;6135120;23;20401;-76
2023/08/20 10:10:13;;;;;;;12.33;11.17;;;27.60;92.70;;;;;;6136081;23;20440;-77
2023/08/20 10:12:46;;;;;;;12.07;10.87;;;27.70;91.40;;;;;;6187300;23;20373;-78
2023/08/20 10:15:36;;;;;;;15.33;12.60;;;27.90;89.10;;;;;;6138664;23;20378;-78
2023/08/20 10:18:04;;;;;;;13.53;12.20;;;28.10;86.20;;;;;;6187016;23;20405;-79
2023/08/20 10:20:31;;;;;;;14.20;11.70;;;28.20;84.10;;;;;;6163798;23;20408;-79
2023/08/20 10:23:03;;;;;;;10.57;9.40;;;28.30;83.20;;;;;;6188787;23;20420;-75
2023/08/20 10:25:39;;;;;;;10.43;9.53;;;28.50;82.60;;;;;;6139596;23;20393;-79
2023/08/20 10:28:29;;;;;;;12.80;10.90;;;29.00;80.80;;;;;;6065059;23;20356;-79
2023/08/20 10:31:32;;;;;;;13.37;12.03;;;29.10;76.30;;;;;;6066782;23;20422;-79
2023/08/20 10:33:59;;;;;;;11.70;10.50;;;28.90;75.60;;;;;;5949770;24;20390;-75
2023/08/20 10:36:29;;;;;;;10.67;9.77;;;29.10;75.80;;;;;;5925985;24;20387;-77
2023/08/20 10:38:57;;;;;;;13.27;10.33;;;29.00;75.50;;;;;;5926001;24;20342;-76
2023/08/20 10:41:29;;;;;;;9.80;8.90;;;29.10;74.80;;;;;;5920229;24;20411;-77
2023/08/20 10:44:01;;;;;;;10.93;9.60;;;29.00;74.30;;;;;;5921511;24;20413;-78
2023/08/20 10:46:30;;;;;;;10.77;9.50;;;29.00;74.30;;;;;;5921931;24;20407;-78
2023/08/20 10:49:01;;;;;;;12.27;11.07;;;29.20;73.40;;;;;;5898934;24;20399;-76
2023/08/20 10:51:39;;;;;;;11.80;10.80;;;29.10;72.70;;;;;;6121428;23;20436;-79
2023/08/20 10:54:11;;;;;;;13.10;11.67;;;29.00;72.70;;;;;;6184612;23;20369;-79
2023/08/20 10:57:01;;;;;;;11.23;9.83;;;28.60;73.00;;;;;;6185447;23;20355;-78
2023/08/20 11:02:18;;;;;;;12.23;11.23;;;28.30;74.10;;;;;;6206210;23;20520;-77
2023/08/20 11:04:51;;;;;;;13.40;12.10;;;28.20;74.90;;;;;;6190326;23;20354;-77
2023/08/20 11:07:27;;;;;;;12.30;11.07;;;28.20;74.00;;;;;;6142266;23;20397;-79
2023/08/20 11:10:01;;;;;;;12.70;11.50;;;28.00;73.20;;;;;;6202990;23;20481;-77
2023/08/20 11:12:40;;;;;;;11.27;10.23;;;27.90;74.40;;;;;;6191010;23;20353;-78
2023/08/20 11:15:27;;;;;;;10.90;9.90;;;28.00;74.30;;;;;;6188649;23;20427;-78
2023/08/20 11:17:59;;;;;;;11.40;10.40;;;27.90;73.00;;;;;;6164643;23;20405;-76
2023/08/20 11:20:25;;;;;;;11.33;9.93;;;28.10;73.50;;;;;;6065164;23;20410;-77
2023/08/20 11:23:20;;;;;;;11.23;10.13;;;28.00;72.50;;;;;;6040581;23;20412;-79
2023/08/20 11:25:51;;;;;;;10.47;9.47;;;27.80;73.50;;;;;;6008641;23;20419;-77
2023/08/20 11:28:20;;;;;;;10.30;9.40;;;27.80;74.10;;;;;;5962985;23;20392;-77
2023/08/20 11:48:22;;;;;;;9.90;9.00;;;27.80;74.80;;;;;;6194888;23;20452;-76
2023/08/20 11:54:26;;;;;;;10.23;9.07;;;28.10;73.80;;;;;;6200719;23;20440;-79
2023/08/20 11:57:14;;;;;;;9.00;8.20;;;28.40;72.40;;;;;;6158080;23;20402;-79
2023/08/20 12:02:57;;;;;;;7.53;6.93;;;28.40;70.90;;;;;;6186678;23;20452;-77
2023/08/20 12:05:31;;;;;;;8.20;7.50;;;28.60;70.40;;;;;;6212807;23;20397;-75
2023/08/20 12:08:02;;;;;;;10.13;9.07;;;28.90;69.60;;;;;;6186593;23;20364;-78
2023/08/20 12:10:37;;;;;;;8.63;7.93;;;29.00;68.30;;;;;;6186423;23;20785;-75
2023/08/20 12:13:05;;;;;;;8.40;7.70;;;29.10;68.20;;;;;;6187762;23;20397;-79
2023/08/20 12:15:32;;;;;;;8.07;7.30;;;29.10;67.80;;;;;;6213543;23;20429;-78
2023/08/20 12:18:04;;;;;;;9.60;8.70;;;29.10;67.00;;;;;;6162756;23;20354;-77
2023/08/20 12:23:21;;;;;;;8.57;7.70;;;29.00;67.20;;;;;;6180170;23;20446;-77
2023/08/20 12:26:30;;;;;;;8.80;7.90;;;28.90;67.70;;;;;;6158751;23;20379;-74
2023/08/20 12:29:06;;;;;;;8.27;7.47;;;28.90;67.70;;;;;;6125541;23;20380;-78
2023/08/20 12:31:34;;;;;;;9.70;8.80;;;28.90;65.70;;;;;;6043936;23;20427;-77
2023/08/20 12:34:03;;;;;;;8.90;8.10;;;28.70;66.40;;;;;;6068124;23;20382;-76
2023/08/20 12:36:36;;;;;;;8.87;8.10;;;28.70;66.80;;;;;;6068538;23;20450;-76
2023/08/20 12:42:29;;;;;;;9.23;8.33;;;28.50;67.30;;;;;;6191138;23;20441;-79
2023/08/20 12:45:27;;;;;;;9.80;8.60;;;28.50;67.30;;;;;;6160208;23;20446;-79
2023/08/20 12:47:54;;;;;;;9.20;8.40;;;28.60;68.70;;;;;;6111931;23;20351;-77
2023/08/20 12:50:25;;;;;;;8.10;7.47;;;28.40;68.60;;;;;;6148132;23;20470;-78
2023/08/20 12:52:52;;;;;;;7.90;7.17;;;28.60;68.20;;;;;;6125617;23;20166;-75
2023/08/20 12:55:19;;;;;;;8.30;7.20;;;28.50;66.40;;;;;;6125687;23;20380;-77
2023/08/20 12:58:06;;;;;;;7.97;7.27;;;28.50;66.40;;;;;;6103070;23;20439;-77
2023/08/20 13:00:35;;;;;;;8.17;7.17;;;28.70;66.20;;;;;;6094679;23;20429;-77
2023/08/20 13:03:02;;;;;;;7.70;7.10;;;28.90;65.20;;;;;;6160306;23;20452;-77
2023/08/20 13:05:28;;;;;;;8.87;7.97;;;28.90;64.40;;;;;;6126146;23;20372;-75
2023/08/20 13:07:55;;;;;;;7.37;6.77;;;28.90;64.90;;;;;;6124879;23;20380;-75
2023/08/20 13:10:21;;;;;;;9.60;7.00;;;28.80;65.10;;;;;;6150611;23;20452;-78
2023/08/20 13:12:50;;;;;;;7.20;6.60;;;28.70;64.70;;;;;;6148624;23;20439;-76
2023/08/20 13:15:28;;;;;;;7.53;6.83;;;29.00;64.60;;;;;;6150942;23;20375;-79
2023/08/20 13:17:55;;;;;;;8.00;7.40;;;29.20;63.90;;;;;;6126452;23;20394;-77
2023/08/20 13:20:24;;;;;;;8.80;8.00;;;29.30;63.70;;;;;;6018721;23;20767;-77
2023/08/20 13:22:52;;;;;;;8.23;7.50;;;29.50;62.40;;;;;;6065959;23;20418;-78
2023/08/20 13:25:21;;;;;;;7.87;7.17;;;29.70;62.10;;;;;;6066174;23;20381;-77
2023/08/20 13:27:55;;;;;;;8.87;8.07;;;30.00;61.20;;;;;;6044014;23;20397;-76